sensor_id;sensor_type;location;lat;lon;timestamp;P1;durP1;ratioP1;P2;durP2;ratioP2
4409;SDS011;2218;51.408;7.208;2023-06-22T00:01:45;1.90;;;1.80;;
4409;SDS011;2218;51.408;7.208;2023-06-22T00:04:13;1.80;;;1.70;;
4409;SDS011;2218;51.408;7.208;2023-06-22T00:06:40;1.90;;;1.73;;
4409;SDS011;2218;51.408;7.208;2023-06-22T00:09:07;1.87;;;1.77;;
4409;SDS011;2218;51.408;7.208;2023-06-22T00:11:35;2.17;;;1.70;;
4409;SDS011;2218;51.408;7.208;2023-06-22T00:14:02;1.80;;;1.70;;
4409;SDS011;2218;51.408;7.208;2023-06-22T00:16:30;1.67;;;1.57;;
4409;SDS011;2218;51.408;7.208;2023-06-22T00:18:58;1.70;;;1.60;;
4409;SDS011;2218;51.408;7.208;2023-06-22T00:21:28;2.20;;;2.10;;
4409;SDS011;2218;51.408;7.208;2023-06-22T00:23:56;1.90;;;1.80;;
4409;SDS011;2218;51.408;7.208;2023-06-22T00:26:23;2.00;;;1.90;;
4409;SDS011;2218;51.408;7.208;2023-06-22T00:28:50;1.90;;;1.63;;
4409;SDS011;2218;51.408;7.208;2023-06-22T00:31:17;1.87;;;1.77;;
4409;SDS011;2218;51.408;7.208;2023-06-22T00:33:44;2.27;;;2.07;;
4409;SDS011;2218;51.408;7.208;2023-06-22T00:36:11;1.97;;;1.87;;
4409;SDS011;2218;51.408;7.208;2023-06-22T00:38:42;1.50;;;1.40;;
4409;SDS011;2218;51.408;7.208;2023-06-22T00:41:09;2.00;;;1.90;;
4409;SDS011;2218;51.408;7.208;2023-06-22T00:43:36;1.80;;;1.70;;
4409;SDS011;2218;51.408;7.208;2023-06-22T00:46:03;1.93;;;1.83;;
4409;SDS011;2218;51.408;7.208;2023-06-22T00:48:30;1.83;;;1.73;;
4409;SDS011;2218;51.408;7.208;2023-06-22T00:50:59;2.00;;;1.90;;
4409;SDS011;2218;51.408;7.208;2023-06-22T00:53:26;1.70;;;1.60;;
4409;SDS011;2218;51.408;7.208;2023-06-22T00:55:54;1.90;;;1.80;;
4409;SDS011;2218;51.408;7.208;2023-06-22T00:58:22;1.90;;;1.80;;
4409;SDS011;2218;51.408;7.208;2023-06-22T01:00:51;2.00;;;1.90;;
4409;SDS011;2218;51.408;7.208;2023-06-22T01:03:18;2.13;;;2.03;;
4409;SDS011;2218;51.408;7.208;2023-06-22T01:05:45;2.03;;;1.93;;
4409;SDS011;2218;51.408;7.208;2023-06-22T01:08:27;1.70;;;1.60;;
4409;SDS011;2218;51.408;7.208;2023-06-22T01:11:16;2.00;;;1.90;;
4409;SDS011;2218;51.408;7.208;2023-06-22T01:13:50;1.80;;;1.70;;
4409;SDS011;2218;51.408;7.208;2023-06-22T01:16:27;2.17;;;2.00;;
4409;SDS011;2218;51.408;7.208;2023-06-22T01:19:00;2.60;;;1.70;;
4409;SDS011;2218;51.408;7.208;2023-06-22T01:21:40;1.57;;;1.47;;
4409;SDS011;2218;51.408;7.208;2023-06-22T01:24:10;1.87;;;1.77;;
4409;SDS011;2218;51.408;7.208;2023-06-22T01:26:51;1.97;;;1.87;;
4409;SDS011;2218;51.408;7.208;2023-06-22T01:29:32;1.70;;;1.60;;
4409;SDS011;2218;51.408;7.208;2023-06-22T01:32:04;2.00;;;1.90;;
4409;SDS011;2218;51.408;7.208;2023-06-22T01:34:34;1.90;;;1.80;;
4409;SDS011;2218;51.408;7.208;2023-06-22T01:37:03;1.87;;;1.77;;
4409;SDS011;2218;51.408;7.208;2023-06-22T01:39:31;1.87;;;1.77;;
4409;SDS011;2218;51.408;7.208;2023-06-22T01:41:59;2.10;;;2.00;;
4409;SDS011;2218;51.408;7.208;2023-06-22T01:44:27;2.23;;;2.13;;
4409;SDS011;2218;51.408;7.208;2023-06-22T01:46:56;1.57;;;1.47;;
4409;SDS011;2218;51.408;7.208;2023-06-22T01:49:24;1.70;;;1.60;;
4409;SDS011;2218;51.408;7.208;2023-06-22T01:51:51;2.70;;;2.17;;
4409;SDS011;2218;51.408;7.208;2023-06-22T01:54:20;2.07;;;1.97;;
4409;SDS011;2218;51.408;7.208;2023-06-22T01:56:47;1.60;;;1.50;;
4409;SDS011;2218;51.408;7.208;2023-06-22T01:59:15;1.80;;;1.70;;
4409;SDS011;2218;51.408;7.208;2023-06-22T02:01:53;2.03;;;1.93;;
4409;SDS011;2218;51.408;7.208;2023-06-22T02:04:30;1.73;;;1.63;;
4409;SDS011;2218;51.408;7.208;2023-06-22T02:07:05;2.10;;;1.73;;
4409;SDS011;2218;51.408;7.208;2023-06-22T02:09:42;1.90;;;1.80;;
4409;SDS011;2218;51.408;7.208;2023-06-22T02:12:13;1.83;;;1.73;;
4409;SDS011;2218;51.408;7.208;2023-06-22T02:14:48;1.70;;;1.60;;
4409;SDS011;2218;51.408;7.208;2023-06-22T02:17:18;2.03;;;1.93;;
4409;SDS011;2218;51.408;7.208;2023-06-22T02:19:45;1.90;;;1.67;;
4409;SDS011;2218;51.408;7.208;2023-06-22T02:22:13;2.30;;;1.83;;
4409;SDS011;2218;51.408;7.208;2023-06-22T02:24:42;2.07;;;1.97;;
4409;SDS011;2218;51.408;7.208;2023-06-22T02:27:09;2.10;;;1.80;;
4409;SDS011;2218;51.408;7.208;2023-06-22T02:29:36;1.60;;;1.50;;
4409;SDS011;2218;51.408;7.208;2023-06-22T02:32:03;1.90;;;1.80;;
4409;SDS011;2218;51.408;7.208;2023-06-22T02:34:32;1.63;;;1.53;;
4409;SDS011;2218;51.408;7.208;2023-06-22T02:36:59;1.77;;;1.67;;
4409;SDS011;2218;51.408;7.208;2023-06-22T02:39:27;2.03;;;1.80;;
4409;SDS011;2218;51.408;7.208;2023-06-22T02:41:54;2.10;;;2.00;;
4409;SDS011;2218;51.408;7.208;2023-06-22T02:44:21;1.70;;;1.60;;
4409;SDS011;2218;51.408;7.208;2023-06-22T02:46:49;1.80;;;1.70;;
4409;SDS011;2218;51.408;7.208;2023-06-22T02:49:16;1.93;;;1.83;;
4409;SDS011;2218;51.408;7.208;2023-06-22T02:51:48;1.77;;;1.67;;
4409;SDS011;2218;51.408;7.208;2023-06-22T02:54:19;1.90;;;1.80;;
4409;SDS011;2218;51.408;7.208;2023-06-22T02:56:48;1.70;;;1.60;;
4409;SDS011;2218;51.408;7.208;2023-06-22T02:59:16;2.23;;;2.13;;
4409;SDS011;2218;51.408;7.208;2023-06-22T03:01:49;2.10;;;1.97;;
4409;SDS011;2218;51.408;7.208;2023-06-22T03:04:20;1.80;;;1.70;;
4409;SDS011;2218;51.408;7.208;2023-06-22T03:06:49;1.87;;;1.77;;
4409;SDS011;2218;51.408;7.208;2023-06-22T03:09:17;1.90;;;1.80;;
4409;SDS011;2218;51.408;7.208;2023-06-22T03:11:44;1.83;;;1.73;;
4409;SDS011;2218;51.408;7.208;2023-06-22T03:14:11;2.13;;;2.03;;
4409;SDS011;2218;51.408;7.208;2023-06-22T03:16:37;2.00;;;1.90;;
4409;SDS011;2218;51.408;7.208;2023-06-22T03:19:06;1.90;;;1.80;;
4409;SDS011;2218;51.408;7.208;2023-06-22T03:21:33;1.90;;;1.80;;
4409;SDS011;2218;51.408;7.208;2023-06-22T03:24:01;1.80;;;1.70;;
4409;SDS011;2218;51.408;7.208;2023-06-22T03:26:28;2.00;;;1.90;;
4409;SDS011;2218;51.408;7.208;2023-06-22T03:28:56;1.80;;;1.70;;
4409;SDS011;2218;51.408;7.208;2023-06-22T03:31:23;1.77;;;1.67;;
4409;SDS011;2218;51.408;7.208;2023-06-22T03:33:51;1.80;;;1.70;;
4409;SDS011;2218;51.408;7.208;2023-06-22T03:36:18;1.87;;;1.77;;
4409;SDS011;2218;51.408;7.208;2023-06-22T03:38:46;1.50;;;1.40;;
4409;SDS011;2218;51.408;7.208;2023-06-22T03:41:16;1.97;;;1.60;;
4409;SDS011;2218;51.408;7.208;2023-06-22T03:43:43;2.30;;;2.10;;
4409;SDS011;2218;51.408;7.208;2023-06-22T03:46:10;1.60;;;1.50;;
4409;SDS011;2218;51.408;7.208;2023-06-22T03:48:37;1.80;;;1.70;;
4409;SDS011;2218;51.408;7.208;2023-06-22T03:51:06;2.00;;;1.90;;
4409;SDS011;2218;51.408;7.208;2023-06-22T03:53:33;2.00;;;1.90;;
4409;SDS011;2218;51.408;7.208;2023-06-22T03:56:00;1.80;;;1.70;;
4409;SDS011;2218;51.408;7.208;2023-06-22T03:58:28;1.67;;;1.47;;
4409;SDS011;2218;51.408;7.208;2023-06-22T04:00:58;2.00;;;1.90;;
4409;SDS011;2218;51.408;7.208;2023-06-22T04:03:25;1.90;;;1.80;;
4409;SDS011;2218;51.408;7.208;2023-06-22T04:05:52;2.03;;;1.93;;
4409;SDS011;2218;51.408;7.208;2023-06-22T04:08:20;1.70;;;1.60;;
4409;SDS011;2218;51.408;7.208;2023-06-22T04:10:47;2.10;;;2.00;;
4409;SDS011;2218;51.408;7.208;2023-06-22T04:13:13;1.53;;;1.43;;
4409;SDS011;2218;51.408;7.208;2023-06-22T04:15:42;2.20;;;1.70;;
4409;SDS011;2218;51.408;7.208;2023-06-22T04:18:09;1.83;;;1.73;;
4409;SDS011;2218;51.408;7.208;2023-06-22T04:20:36;1.60;;;1.50;;
4409;SDS011;2218;51.408;7.208;2023-06-22T04:23:02;1.60;;;1.50;;
4409;SDS011;2218;51.408;7.208;2023-06-22T04:25:29;1.93;;;1.83;;
4409;SDS011;2218;51.408;7.208;2023-06-22T04:27:56;1.63;;;1.53;;
4409;SDS011;2218;51.408;7.208;2023-06-22T04:30:23;1.93;;;1.83;;
4409;SDS011;2218;51.408;7.208;2023-06-22T04:32:52;1.73;;;1.63;;
4409;SDS011;2218;51.408;7.208;2023-06-22T04:35:22;1.60;;;1.50;;
4409;SDS011;2218;51.408;7.208;2023-06-22T04:37:50;1.93;;;1.83;;
4409;SDS011;2218;51.408;7.208;2023-06-22T04:40:20;1.80;;;1.70;;
4409;SDS011;2218;51.408;7.208;2023-06-22T04:42:48;1.87;;;1.77;;
4409;SDS011;2218;51.408;7.208;2023-06-22T04:45:18;1.70;;;1.60;;
4409;SDS011;2218;51.408;7.208;2023-06-22T04:47:46;2.10;;;1.90;;
4409;SDS011;2218;51.408;7.208;2023-06-22T04:50:14;1.60;;;1.50;;
4409;SDS011;2218;51.408;7.208;2023-06-22T04:52:42;1.70;;;1.60;;
4409;SDS011;2218;51.408;7.208;2023-06-22T04:55:10;1.60;;;1.50;;
4409;SDS011;2218;51.408;7.208;2023-06-22T04:57:37;1.80;;;1.70;;
4409;SDS011;2218;51.408;7.208;2023-06-22T05:00:05;1.67;;;1.57;;
4409;SDS011;2218;51.408;7.208;2023-06-22T05:02:37;1.50;;;1.40;;
4409;SDS011;2218;51.408;7.208;2023-06-22T05:05:05;1.80;;;1.70;;
4409;SDS011;2218;51.408;7.208;2023-06-22T05:07:34;2.03;;;1.93;;
4409;SDS011;2218;51.408;7.208;2023-06-22T05:10:02;1.40;;;1.30;;
4409;SDS011;2218;51.408;7.208;2023-06-22T05:12:30;1.50;;;1.40;;
4409;SDS011;2218;51.408;7.208;2023-06-22T05:14:57;1.70;;;1.60;;
4409;SDS011;2218;51.408;7.208;2023-06-22T05:17:24;1.57;;;1.47;;
4409;SDS011;2218;51.408;7.208;2023-06-22T05:19:51;1.70;;;1.60;;
4409;SDS011;2218;51.408;7.208;2023-06-22T05:22:18;1.50;;;1.40;;
4409;SDS011;2218;51.408;7.208;2023-06-22T05:24:47;1.80;;;1.70;;
4409;SDS011;2218;51.408;7.208;2023-06-22T05:27:14;1.53;;;1.43;;
4409;SDS011;2218;51.408;7.208;2023-06-22T05:29:41;1.43;;;1.33;;
4409;SDS011;2218;51.408;7.208;2023-06-22T05:32:08;1.57;;;1.47;;
4409;SDS011;2218;51.408;7.208;2023-06-22T05:34:36;1.50;;;1.40;;
4409;SDS011;2218;51.408;7.208;2023-06-22T05:37:03;1.40;;;1.30;;
4409;SDS011;2218;51.408;7.208;2023-06-22T05:39:31;1.70;;;1.60;;
4409;SDS011;2218;51.408;7.208;2023-06-22T05:41:59;1.80;;;1.70;;
4409;SDS011;2218;51.408;7.208;2023-06-22T05:44:26;1.87;;;1.77;;
4409;SDS011;2218;51.408;7.208;2023-06-22T05:46:53;1.67;;;1.57;;
4409;SDS011;2218;51.408;7.208;2023-06-22T05:49:20;2.23;;;2.10;;
4409;SDS011;2218;51.408;7.208;2023-06-22T05:51:47;1.40;;;1.30;;
4409;SDS011;2218;51.408;7.208;2023-06-22T05:54:14;1.50;;;1.40;;
4409;SDS011;2218;51.408;7.208;2023-06-22T05:56:43;2.43;;;1.47;;
4409;SDS011;2218;51.408;7.208;2023-06-22T05:59:11;1.60;;;1.50;;
4409;SDS011;2218;51.408;7.208;2023-06-22T06:01:38;5.60;;;5.10;;
4409;SDS011;2218;51.408;7.208;2023-06-22T06:04:05;7.07;;;5.83;;
4409;SDS011;2218;51.408;7.208;2023-06-22T06:06:33;7.40;;;6.67;;
4409;SDS011;2218;51.408;7.208;2023-06-22T06:09:02;7.30;;;6.30;;
4409;SDS011;2218;51.408;7.208;2023-06-22T06:11:29;9.50;;;7.20;;
4409;SDS011;2218;51.408;7.208;2023-06-22T06:13:56;7.90;;;6.83;;
4409;SDS011;2218;51.408;7.208;2023-06-22T06:16:25;7.60;;;6.60;;
4409;SDS011;2218;51.408;7.208;2023-06-22T06:18:51;6.93;;;6.23;;
4409;SDS011;2218;51.408;7.208;2023-06-22T06:21:21;11.10;;;8.30;;
4409;SDS011;2218;51.408;7.208;2023-06-22T06:23:48;9.17;;;7.87;;
4409;SDS011;2218;51.408;7.208;2023-06-22T06:26:15;9.27;;;7.90;;
4409;SDS011;2218;51.408;7.208;2023-06-22T06:28:42;10.03;;;8.17;;
4409;SDS011;2218;51.408;7.208;2023-06-22T06:31:09;15.67;;;8.70;;
4409;SDS011;2218;51.408;7.208;2023-06-22T06:33:38;9.20;;;8.20;;
4409;SDS011;2218;51.408;7.208;2023-06-22T06:36:05;13.20;;;9.13;;
4409;SDS011;2218;51.408;7.208;2023-06-22T06:38:33;10.27;;;9.20;;
4409;SDS011;2218;51.408;7.208;2023-06-22T06:41:00;10.07;;;8.17;;
4409;SDS011;2218;51.408;7.208;2023-06-22T06:43:27;10.00;;;8.20;;
4409;SDS011;2218;51.408;7.208;2023-06-22T06:45:54;12.20;;;8.73;;
4409;SDS011;2218;51.408;7.208;2023-06-22T06:48:21;8.90;;;8.00;;
4409;SDS011;2218;51.408;7.208;2023-06-22T06:50:49;10.60;;;8.97;;
4409;SDS011;2218;51.408;7.208;2023-06-22T06:53:16;15.20;;;10.83;;
4409;SDS011;2218;51.408;7.208;2023-06-22T06:55:43;9.00;;;8.10;;
4409;SDS011;2218;51.408;7.208;2023-06-22T06:58:11;10.77;;;9.30;;
4409;SDS011;2218;51.408;7.208;2023-06-22T07:00:38;9.60;;;8.10;;
4409;SDS011;2218;51.408;7.208;2023-06-22T07:03:05;11.10;;;8.60;;
4409;SDS011;2218;51.408;7.208;2023-06-22T07:05:33;9.43;;;8.17;;
4409;SDS011;2218;51.408;7.208;2023-06-22T07:08:01;12.40;;;9.10;;
4409;SDS011;2218;51.408;7.208;2023-06-22T07:10:29;11.00;;;9.03;;
4409;SDS011;2218;51.408;7.208;2023-06-22T07:12:56;9.73;;;8.83;;
4409;SDS011;2218;51.408;7.208;2023-06-22T07:15:23;10.50;;;9.40;;
4409;SDS011;2218;51.408;7.208;2023-06-22T07:17:50;11.97;;;8.30;;
4409;SDS011;2218;51.408;7.208;2023-06-22T07:20:17;10.77;;;8.03;;
4409;SDS011;2218;51.408;7.208;2023-06-22T07:22:44;8.60;;;6.80;;
4409;SDS011;2218;51.408;7.208;2023-06-22T07:25:13;10.60;;;6.93;;
4409;SDS011;2218;51.408;7.208;2023-06-22T07:27:43;9.50;;;5.97;;
4409;SDS011;2218;51.408;7.208;2023-06-22T07:30:12;6.50;;;5.77;;
4409;SDS011;2218;51.408;7.208;2023-06-22T07:32:39;6.63;;;5.80;;
4409;SDS011;2218;51.408;7.208;2023-06-22T07:35:07;6.20;;;5.40;;
4409;SDS011;2218;51.408;7.208;2023-06-22T07:37:35;6.87;;;6.20;;
4409;SDS011;2218;51.408;7.208;2023-06-22T07:40:02;9.40;;;5.50;;
4409;SDS011;2218;51.408;7.208;2023-06-22T07:42:33;6.97;;;5.83;;
4409;SDS011;2218;51.408;7.208;2023-06-22T07:45:00;8.50;;;5.90;;
4409;SDS011;2218;51.408;7.208;2023-06-22T07:47:28;6.60;;;5.47;;
4409;SDS011;2218;51.408;7.208;2023-06-22T07:49:55;6.97;;;6.20;;
4409;SDS011;2218;51.408;7.208;2023-06-22T07:52:26;8.00;;;5.70;;
4409;SDS011;2218;51.408;7.208;2023-06-22T07:54:54;7.27;;;6.50;;
4409;SDS011;2218;51.408;7.208;2023-06-22T07:57:21;7.40;;;6.27;;
4409;SDS011;2218;51.408;7.208;2023-06-22T07:59:49;8.87;;;6.03;;
4409;SDS011;2218;51.408;7.208;2023-06-22T08:02:16;11.07;;;6.20;;
4409;SDS011;2218;51.408;7.208;2023-06-22T08:04:43;9.60;;;6.17;;
4409;SDS011;2218;51.408;7.208;2023-06-22T08:07:10;10.27;;;6.13;;
4409;SDS011;2218;51.408;7.208;2023-06-22T08:09:37;9.60;;;6.43;;
4409;SDS011;2218;51.408;7.208;2023-06-22T08:12:05;12.10;;;7.40;;
4409;SDS011;2218;51.408;7.208;2023-06-22T08:14:35;8.13;;;6.57;;
4409;SDS011;2218;51.408;7.208;2023-06-22T08:17:06;8.70;;;6.60;;
4409;SDS011;2218;51.408;7.208;2023-06-22T08:19:33;6.80;;;6.00;;
4409;SDS011;2218;51.408;7.208;2023-06-22T08:22:01;12.43;;;5.90;;
4409;SDS011;2218;51.408;7.208;2023-06-22T08:24:28;7.10;;;6.40;;
4409;SDS011;2218;51.408;7.208;2023-06-22T08:26:55;8.80;;;6.33;;
4409;SDS011;2218;51.408;7.208;2023-06-22T08:29:22;9.80;;;6.43;;
4409;SDS011;2218;51.408;7.208;2023-06-22T08:31:49;7.20;;;6.13;;
4409;SDS011;2218;51.408;7.208;2023-06-22T08:34:18;9.40;;;6.60;;
4409;SDS011;2218;51.408;7.208;2023-06-22T08:36:46;7.03;;;6.27;;
4409;SDS011;2218;51.408;7.208;2023-06-22T08:39:16;10.57;;;6.87;;
4409;SDS011;2218;51.408;7.208;2023-06-22T08:41:43;9.07;;;6.57;;
4409;SDS011;2218;51.408;7.208;2023-06-22T08:44:11;9.13;;;6.77;;
4409;SDS011;2218;51.408;7.208;2023-06-22T08:46:38;11.30;;;7.80;;
4409;SDS011;2218;51.408;7.208;2023-06-22T08:49:05;7.97;;;7.27;;
4409;SDS011;2218;51.408;7.208;2023-06-22T08:51:34;6.33;;;5.77;;
4409;SDS011;2218;51.408;7.208;2023-06-22T08:54:01;11.50;;;7.20;;
4409;SDS011;2218;51.408;7.208;2023-06-22T08:56:28;7.30;;;6.27;;
4409;SDS011;2218;51.408;7.208;2023-06-22T08:58:55;11.27;;;8.13;;
4409;SDS011;2218;51.408;7.208;2023-06-22T09:01:22;8.80;;;7.93;;
4409;SDS011;2218;51.408;7.208;2023-06-22T09:03:49;17.00;;;9.70;;
4409;SDS011;2218;51.408;7.208;2023-06-22T09:06:22;10.47;;;8.47;;
4409;SDS011;2218;51.408;7.208;2023-06-22T09:08:52;14.83;;;8.97;;
4409;SDS011;2218;51.408;7.208;2023-06-22T09:11:18;11.70;;;9.20;;
4409;SDS011;2218;51.408;7.208;2023-06-22T09:13:45;17.83;;;9.13;;
4409;SDS011;2218;51.408;7.208;2023-06-22T09:16:13;15.67;;;10.33;;
4409;SDS011;2218;51.408;7.208;2023-06-22T09:18:40;11.50;;;9.93;;
4409;SDS011;2218;51.408;7.208;2023-06-22T09:21:07;15.33;;;10.40;;
4409;SDS011;2218;51.408;7.208;2023-06-22T09:23:34;19.10;;;10.10;;
4409;SDS011;2218;51.408;7.208;2023-06-22T09:26:03;23.13;;;10.83;;
4409;SDS011;2218;51.408;7.208;2023-06-22T09:28:30;12.73;;;10.17;;
4409;SDS011;2218;51.408;7.208;2023-06-22T09:30:58;13.57;;;10.07;;
4409;SDS011;2218;51.408;7.208;2023-06-22T09:33:25;11.70;;;8.77;;
4409;SDS011;2218;51.408;7.208;2023-06-22T09:35:52;17.73;;;8.33;;
4409;SDS011;2218;51.408;7.208;2023-06-22T09:38:19;8.17;;;7.37;;
4409;SDS011;2218;51.408;7.208;2023-06-22T09:40:46;8.97;;;7.70;;
4409;SDS011;2218;51.408;7.208;2023-06-22T09:43:15;10.53;;;7.27;;
4409;SDS011;2218;51.408;7.208;2023-06-22T09:45:42;8.50;;;7.60;;
4409;SDS011;2218;51.408;7.208;2023-06-22T09:48:09;10.23;;;7.97;;
4409;SDS011;2218;51.408;7.208;2023-06-22T09:50:36;8.17;;;6.83;;
4409;SDS011;2218;51.408;7.208;2023-06-22T09:53:03;7.77;;;7.00;;
4409;SDS011;2218;51.408;7.208;2023-06-22T09:55:30;9.30;;;7.57;;
4409;SDS011;2218;51.408;7.208;2023-06-22T09:57:57;7.73;;;6.97;;
4409;SDS011;2218;51.408;7.208;2023-06-22T10:00:25;7.03;;;6.40;;
4409;SDS011;2218;51.408;7.208;2023-06-22T10:02:52;7.90;;;6.87;;
4409;SDS011;2218;51.408;7.208;2023-06-22T10:05:20;8.50;;;7.07;;
4409;SDS011;2218;51.408;7.208;2023-06-22T10:07:48;13.10;;;7.63;;
4409;SDS011;2218;51.408;7.208;2023-06-22T10:10:15;8.40;;;7.43;;
4409;SDS011;2218;51.408;7.208;2023-06-22T10:12:46;7.00;;;6.40;;
4409;SDS011;2218;51.408;7.208;2023-06-22T10:15:20;8.17;;;6.77;;
4409;SDS011;2218;51.408;7.208;2023-06-22T10:17:48;8.37;;;7.57;;
4409;SDS011;2218;51.408;7.208;2023-06-22T10:20:15;8.07;;;7.30;;
4409;SDS011;2218;51.408;7.208;2023-06-22T10:22:44;7.90;;;7.10;;
4409;SDS011;2218;51.408;7.208;2023-06-22T10:25:12;8.63;;;7.83;;
4409;SDS011;2218;51.408;7.208;2023-06-22T10:27:39;8.47;;;7.20;;
4409;SDS011;2218;51.408;7.208;2023-06-22T10:30:07;9.30;;;7.20;;
4409;SDS011;2218;51.408;7.208;2023-06-22T10:32:35;7.83;;;7.13;;
4409;SDS011;2218;51.408;7.208;2023-06-22T10:35:06;8.27;;;6.77;;
4409;SDS011;2218;51.408;7.208;2023-06-22T10:37:35;8.30;;;7.50;;
4409;SDS011;2218;51.408;7.208;2023-06-22T10:40:03;13.73;;;7.57;;
4409;SDS011;2218;51.408;7.208;2023-06-22T10:42:33;9.80;;;7.50;;
4409;SDS011;2218;51.408;7.208;2023-06-22T10:45:00;8.90;;;7.30;;
4409;SDS011;2218;51.408;7.208;2023-06-22T10:47:27;10.13;;;7.40;;
4409;SDS011;2218;51.408;7.208;2023-06-22T10:49:54;17.73;;;9.00;;
4409;SDS011;2218;51.408;7.208;2023-06-22T10:52:23;9.80;;;8.80;;
4409;SDS011;2218;51.408;7.208;2023-06-22T10:54:52;10.87;;;9.17;;
4409;SDS011;2218;51.408;7.208;2023-06-22T10:57:23;10.73;;;9.67;;
4409;SDS011;2218;51.408;7.208;2023-06-22T10:59:51;12.00;;;8.63;;
4409;SDS011;2218;51.408;7.208;2023-06-22T11:02:17;11.57;;;8.00;;
4409;SDS011;2218;51.408;7.208;2023-06-22T11:04:44;7.33;;;6.63;;
4409;SDS011;2218;51.408;7.208;2023-06-22T11:07:12;7.90;;;7.10;;
4409;SDS011;2218;51.408;7.208;2023-06-22T11:09:41;8.07;;;7.27;;
4409;SDS011;2218;51.408;7.208;2023-06-22T11:12:09;6.93;;;6.33;;
4409;SDS011;2218;51.408;7.208;2023-06-22T11:14:36;8.80;;;7.30;;
4409;SDS011;2218;51.408;7.208;2023-06-22T11:17:05;9.37;;;7.03;;
4409;SDS011;2218;51.408;7.208;2023-06-22T11:19:32;7.97;;;7.17;;
4409;SDS011;2218;51.408;7.208;2023-06-22T11:21:59;9.00;;;8.00;;
4409;SDS011;2218;51.408;7.208;2023-06-22T11:24:26;10.43;;;8.23;;
4409;SDS011;2218;51.408;7.208;2023-06-22T11:26:54;7.80;;;7.10;;
4409;SDS011;2218;51.408;7.208;2023-06-22T11:29:21;6.40;;;5.83;;
4409;SDS011;2218;51.408;7.208;2023-06-22T11:31:48;7.43;;;6.70;;
4409;SDS011;2218;51.408;7.208;2023-06-22T11:34:15;9.00;;;8.10;;
4409;SDS011;2218;51.408;7.208;2023-06-22T11:36:42;10.27;;;9.17;;
4409;SDS011;2218;51.408;7.208;2023-06-22T11:39:10;10.07;;;9.07;;
4409;SDS011;2218;51.408;7.208;2023-06-22T11:41:39;9.50;;;8.60;;
4409;SDS011;2218;51.408;7.208;2023-06-22T11:44:08;11.33;;;10.13;;
4409;SDS011;2218;51.408;7.208;2023-06-22T11:46:35;16.03;;;10.90;;
4409;SDS011;2218;51.408;7.208;2023-06-22T11:49:02;11.33;;;9.90;;
4409;SDS011;2218;51.408;7.208;2023-06-22T11:51:29;18.07;;;10.97;;
4409;SDS011;2218;51.408;7.208;2023-06-22T11:53:56;11.40;;;10.10;;
4409;SDS011;2218;51.408;7.208;2023-06-22T11:56:23;9.37;;;8.37;;
4409;SDS011;2218;51.408;7.208;2023-06-22T11:58:50;11.27;;;8.93;;
4409;SDS011;2218;51.408;7.208;2023-06-22T12:01:20;12.10;;;10.50;;
4409;SDS011;2218;51.408;7.208;2023-06-22T12:03:47;14.20;;;11.00;;
4409;SDS011;2218;51.408;7.208;2023-06-22T12:06:14;15.50;;;9.37;;
4409;SDS011;2218;51.408;7.208;2023-06-22T12:08:41;12.30;;;10.23;;
4409;SDS011;2218;51.408;7.208;2023-06-22T12:11:08;14.10;;;11.27;;
4409;SDS011;2218;51.408;7.208;2023-06-22T12:13:35;13.73;;;11.90;;
4409;SDS011;2218;51.408;7.208;2023-06-22T12:16:02;14.03;;;10.93;;
4409;SDS011;2218;51.408;7.208;2023-06-22T12:18:30;18.47;;;13.57;;
4409;SDS011;2218;51.408;7.208;2023-06-22T12:20:58;14.90;;;12.43;;
4409;SDS011;2218;51.408;7.208;2023-06-22T12:23:25;24.97;;;14.53;;
4409;SDS011;2218;51.408;7.208;2023-06-22T12:25:52;20.97;;;13.70;;
4409;SDS011;2218;51.408;7.208;2023-06-22T12:28:19;17.13;;;14.53;;
4409;SDS011;2218;51.408;7.208;2023-06-22T12:30:46;21.73;;;13.47;;
4409;SDS011;2218;51.408;7.208;2023-06-22T12:33:13;17.53;;;13.43;;
4409;SDS011;2218;51.408;7.208;2023-06-22T12:35:41;15.90;;;13.40;;
4409;SDS011;2218;51.408;7.208;2023-06-22T12:38:10;16.47;;;14.83;;
4409;SDS011;2218;51.408;7.208;2023-06-22T12:40:37;19.40;;;14.80;;
4409;SDS011;2218;51.408;7.208;2023-06-22T12:43:04;14.33;;;12.70;;
4409;SDS011;2218;51.408;7.208;2023-06-22T12:45:32;18.60;;;12.87;;
4409;SDS011;2218;51.408;7.208;2023-06-22T12:47:59;17.50;;;12.30;;
4409;SDS011;2218;51.408;7.208;2023-06-22T12:50:27;21.83;;;11.67;;
4409;SDS011;2218;51.408;7.208;2023-06-22T12:52:55;12.73;;;11.17;;
4409;SDS011;2218;51.408;7.208;2023-06-22T12:55:22;12.53;;;10.60;;
4409;SDS011;2218;51.408;7.208;2023-06-22T12:57:49;13.03;;;10.60;;
4409;SDS011;2218;51.408;7.208;2023-06-22T13:00:17;15.63;;;10.60;;
4409;SDS011;2218;51.408;7.208;2023-06-22T13:02:45;10.60;;;9.60;;
4409;SDS011;2218;51.408;7.208;2023-06-22T13:05:13;18.23;;;9.97;;
4409;SDS011;2218;51.408;7.208;2023-06-22T13:07:40;10.53;;;9.33;;
4409;SDS011;2218;51.408;7.208;2023-06-22T13:10:09;10.30;;;9.30;;
4409;SDS011;2218;51.408;7.208;2023-06-22T13:12:36;10.83;;;9.77;;
4409;SDS011;2218;51.408;7.208;2023-06-22T13:15:03;10.70;;;9.03;;
4409;SDS011;2218;51.408;7.208;2023-06-22T13:17:31;9.23;;;8.33;;
4409;SDS011;2218;51.408;7.208;2023-06-22T13:19:58;11.33;;;8.70;;
4409;SDS011;2218;51.408;7.208;2023-06-22T13:22:26;13.57;;;8.50;;
4409;SDS011;2218;51.408;7.208;2023-06-22T13:24:56;10.70;;;8.53;;
4409;SDS011;2218;51.408;7.208;2023-06-22T13:27:25;11.60;;;8.83;;
4409;SDS011;2218;51.408;7.208;2023-06-22T13:29:52;11.27;;;9.87;;
4409;SDS011;2218;51.408;7.208;2023-06-22T13:32:19;9.77;;;8.80;;
4409;SDS011;2218;51.408;7.208;2023-06-22T13:34:46;8.90;;;7.63;;
4409;SDS011;2218;51.408;7.208;2023-06-22T13:37:13;9.70;;;8.17;;
4409;SDS011;2218;51.408;7.208;2023-06-22T13:39:41;10.57;;;8.10;;
4409;SDS011;2218;51.408;7.208;2023-06-22T13:42:08;8.47;;;7.70;;
4409;SDS011;2218;51.408;7.208;2023-06-22T13:44:36;8.10;;;7.17;;
4409;SDS011;2218;51.408;7.208;2023-06-22T13:47:03;7.80;;;7.00;;
4409;SDS011;2218;51.408;7.208;2023-06-22T13:49:32;7.80;;;7.10;;
4409;SDS011;2218;51.408;7.208;2023-06-22T13:51:59;8.80;;;8.00;;
4409;SDS011;2218;51.408;7.208;2023-06-22T13:54:26;7.83;;;7.03;;
4409;SDS011;2218;51.408;7.208;2023-06-22T13:56:53;8.80;;;7.37;;
4409;SDS011;2218;51.408;7.208;2023-06-22T13:59:20;8.60;;;7.60;;
4409;SDS011;2218;51.408;7.208;2023-06-22T14:01:48;7.70;;;7.00;;
4409;SDS011;2218;51.408;7.208;2023-06-22T14:04:15;7.67;;;6.97;;
4409;SDS011;2218;51.408;7.208;2023-06-22T14:06:42;7.90;;;7.10;;
4409;SDS011;2218;51.408;7.208;2023-06-22T14:09:09;11.23;;;8.20;;
4409;SDS011;2218;51.408;7.208;2023-06-22T14:11:36;8.40;;;6.90;;
4409;SDS011;2218;51.408;7.208;2023-06-22T14:14:03;8.07;;;7.10;;
4409;SDS011;2218;51.408;7.208;2023-06-22T14:16:29;9.10;;;7.33;;
4409;SDS011;2218;51.408;7.208;2023-06-22T14:18:58;7.10;;;6.47;;
4409;SDS011;2218;51.408;7.208;2023-06-22T14:21:25;8.10;;;6.67;;
4409;SDS011;2218;51.408;7.208;2023-06-22T14:23:52;7.10;;;6.30;;
4409;SDS011;2218;51.408;7.208;2023-06-22T14:26:19;8.63;;;6.77;;
4409;SDS011;2218;51.408;7.208;2023-06-22T14:28:47;7.57;;;6.70;;
4409;SDS011;2218;51.408;7.208;2023-06-22T14:31:15;6.90;;;6.20;;
4409;SDS011;2218;51.408;7.208;2023-06-22T14:33:44;7.80;;;6.90;;
4409;SDS011;2218;51.408;7.208;2023-06-22T14:36:15;7.10;;;6.40;;
4409;SDS011;2218;51.408;7.208;2023-06-22T14:38:43;7.80;;;7.10;;
4409;SDS011;2218;51.408;7.208;2023-06-22T14:41:11;7.37;;;6.60;;
4409;SDS011;2218;51.408;7.208;2023-06-22T14:43:43;7.80;;;6.60;;
4409;SDS011;2218;51.408;7.208;2023-06-22T14:46:11;7.33;;;6.73;;
4409;SDS011;2218;51.408;7.208;2023-06-22T14:48:39;6.80;;;6.20;;
4409;SDS011;2218;51.408;7.208;2023-06-22T14:51:05;7.17;;;6.57;;
4409;SDS011;2218;51.408;7.208;2023-06-22T14:53:35;8.40;;;7.67;;
4409;SDS011;2218;51.408;7.208;2023-06-22T14:56:02;9.50;;;7.87;;
4409;SDS011;2218;51.408;7.208;2023-06-22T14:58:29;10.87;;;9.77;;
4409;SDS011;2218;51.408;7.208;2023-06-22T15:00:58;10.63;;;9.53;;
4409;SDS011;2218;51.408;7.208;2023-06-22T15:03:25;9.90;;;9.00;;
4409;SDS011;2218;51.408;7.208;2023-06-22T15:06:02;11.33;;;9.43;;
4409;SDS011;2218;51.408;7.208;2023-06-22T15:08:30;12.07;;;10.77;;
4409;SDS011;2218;51.408;7.208;2023-06-22T15:10:59;12.70;;;9.47;;
4409;SDS011;2218;51.408;7.208;2023-06-22T15:13:27;16.10;;;9.70;;
4409;SDS011;2218;51.408;7.208;2023-06-22T15:15:59;10.97;;;9.80;;